createdAt,value
2022-09-22T00:01:33.539Z,100074.03
2022-09-22T00:04:07.250Z,100071.53
2022-09-22T00:06:38.954Z,100063.06
2022-09-22T00:09:09.798Z,100074.22
2022-09-22T00:11:40.273Z,100082.41
2022-09-22T00:14:10.559Z,100084.63
2022-09-22T00:16:43.075Z,100088.66
2022-09-22T00:19:14.948Z,100096.53
2022-09-22T00:21:42.924Z,100099.31
2022-09-22T00:24:11.271Z,100106.31
2022-09-22T00:26:40.027Z,100113.72
2022-09-22T00:29:09.716Z,100102.09
2022-09-22T00:31:40.758Z,100095.09
2022-09-22T00:34:09.569Z,100093.66
2022-09-22T00:36:37.455Z,100089.22
2022-09-22T00:39:05.443Z,100084.59
2022-09-22T00:41:38.060Z,100081.91
2022-09-22T00:44:35.922Z,100071.16
2022-09-22T00:47:13.022Z,100068.69
2022-09-22T00:49:47.680Z,100068.38
2022-09-22T00:52:18.327Z,100049.94
2022-09-22T00:54:46.784Z,100055.81
2022-09-22T00:57:17.805Z,100045.72
2022-09-22T00:59:48.928Z,100045.44
2022-09-22T01:02:18.262Z,100034.47
2022-09-22T01:04:47.061Z,100029.88
2022-09-22T01:07:15.144Z,100026.25
2022-09-22T01:09:43.123Z,100019.31
2022-09-22T01:12:11.016Z,100027.00
2022-09-22T01:14:54.447Z,100025.47
2022-09-22T01:17:33.621Z,100022.66
2022-09-22T01:20:23.728Z,100018.94
2022-09-22T01:23:19.326Z,100016.06
2022-09-22T01:26:04.065Z,100019.97
2022-09-22T01:29:01.168Z,100025.19
2022-09-22T01:31:38.522Z,100026.59
2022-09-22T01:34:11.053Z,100028.91
2022-09-22T01:36:45.854Z,100031.59
2022-09-22T01:39:18.560Z,100031.22
2022-09-22T01:41:52.630Z,100031.00
2022-09-22T01:44:27.560Z,100037.13
2022-09-22T01:47:02.765Z,100043.47
2022-09-22T01:49:34.912Z,100048.97
2022-09-22T01:52:09.555Z,100044.63
2022-09-22T01:54:42.822Z,100051.03
2022-09-22T01:57:17.028Z,100053.63
2022-09-22T01:59:51.003Z,100051.03
2022-09-22T02:02:25.410Z,100056.69
2022-09-22T02:04:59.303Z,100044.91
2022-09-22T02:07:33.806Z,100055.44
2022-09-22T02:10:06.525Z,100058.06
2022-09-22T02:12:35.900Z,100054.66
2022-09-22T02:15:03.834Z,100053.84
2022-09-22T02:17:35.461Z,100052.09
2022-09-22T02:20:06.427Z,100057.34
2022-09-22T02:22:34.519Z,100054.88
2022-09-22T02:25:02.396Z,100051.41
2022-09-22T02:27:36.774Z,100053.41
2022-09-22T02:30:08.561Z,100064.34
2022-09-22T02:32:40.962Z,100073.13
2022-09-22T02:35:10.667Z,100073.59
2022-09-22T02:37:46.161Z,100077.94
2022-09-22T02:40:20.758Z,100079.47
2022-09-22T02:42:53.307Z,100084.78
2022-09-22T02:45:26.596Z,100090.41
2022-09-22T02:47:59.217Z,100093.97
2022-09-22T02:50:29.640Z,100094.91
2022-09-22T02:53:02.350Z,100099.69
2022-09-22T02:55:30.345Z,100103.25
2022-09-22T02:57:58.222Z,100105.81
2022-09-22T03:00:26.792Z,100110.41
2022-09-22T03:02:56.037Z,100106.53
2022-09-22T03:05:23.933Z,100104.97
2022-09-22T03:07:51.820Z,100100.56
2022-09-22T03:10:19.765Z,100115.72
2022-09-22T03:13:14.411Z,100110.53
2022-09-22T03:15:35.673Z,100112.16
2022-09-22T03:18:05.258Z,100118.84
2022-09-22T03:20:33.245Z,100114.19
2022-09-22T03:23:01.212Z,100102.09
2022-09-22T03:25:29.202Z,100104.13
2022-09-22T03:27:57.133Z,100097.19
2022-09-22T03:30:25.124Z,100104.56
2022-09-22T03:32:52.951Z,100112.03
2022-09-22T03:35:22.214Z,100115.13
2022-09-22T03:37:50.068Z,100113.47
2022-09-22T03:40:18.199Z,100118.78
2022-09-22T03:42:46.149Z,100132.34
2022-09-22T03:45:15.000Z,100135.66
2022-09-22T03:47:43.027Z,100149.06
2022-09-22T03:50:11.494Z,100135.56
2022-09-22T03:52:42.952Z,100149.06
2022-09-22T03:55:11.132Z,100149.13
2022-09-22T03:57:39.219Z,100148.63
2022-09-22T04:00:08.692Z,100138.97
2022-09-22T04:02:42.712Z,100135.66
2022-09-22T04:05:12.123Z,100133.28
2022-09-22T04:07:41.535Z,100135.13
2022-09-22T04:10:09.601Z,100137.88
2022-09-22T04:12:37.759Z,100129.78
2022-09-22T04:15:06.823Z,100133.50
2022-09-22T04:17:34.736Z,100125.34
2022-09-22T04:20:02.900Z,100122.75
2022-09-22T04:22:31.177Z,100123.88
2022-09-22T04:25:00.417Z,100120.69
2022-09-22T04:27:28.285Z,100121.09
2022-09-22T04:29:56.185Z,100124.66
2022-09-22T04:32:24.475Z,100126.16
2022-09-22T04:34:52.430Z,100121.63
2022-09-22T04:37:20.407Z,100118.09
2022-09-22T04:39:48.323Z,100112.19
2022-09-22T04:42:17.590Z,100110.47
2022-09-22T04:44:46.719Z,100111.59
2022-09-22T04:47:14.769Z,100110.13
2022-09-22T04:49:42.692Z,100095.34
2022-09-22T04:52:10.835Z,100101.13
2022-09-22T04:54:38.680Z,100100.72
2022-09-22T04:57:06.717Z,100087.19
2022-09-22T04:59:35.996Z,100076.00
2022-09-22T05:02:04.107Z,100079.81
2022-09-22T05:04:32.005Z,100076.47
2022-09-22T05:07:00.131Z,100080.28
2022-09-22T05:09:28.175Z,100072.91
2022-09-22T05:12:01.208Z,100071.25
2022-09-22T05:14:29.557Z,100071.09
2022-09-22T05:16:58.830Z,100069.19
2022-09-22T05:19:27.226Z,100065.06
2022-09-22T05:21:55.092Z,100060.34
2022-09-22T05:24:23.096Z,100063.03
2022-09-22T05:26:50.942Z,100059.38
2022-09-22T05:29:18.840Z,100056.91
2022-09-22T05:31:47.276Z,100057.94
2022-09-22T05:34:16.614Z,100051.53
2022-09-22T05:36:44.514Z,100063.13
2022-09-22T05:39:12.331Z,100059.06
2022-09-22T05:41:40.260Z,100064.84
2022-09-22T05:44:08.252Z,100062.44
2022-09-22T05:46:36.245Z,100048.84
2022-09-22T05:49:04.181Z,100047.63
2022-09-22T05:51:33.561Z,100045.66
2022-09-22T05:54:01.430Z,100038.16
2022-09-22T05:56:29.316Z,100031.84
2022-09-22T05:58:57.172Z,100033.00
2022-09-22T06:01:25.413Z,100024.94
2022-09-22T06:03:53.723Z,100018.25
2022-09-22T06:06:21.829Z,100014.78
2022-09-22T06:08:51.080Z,100024.34
2022-09-22T06:11:19.163Z,100024.19
2022-09-22T06:13:50.516Z,100023.25
2022-09-22T06:16:18.728Z,99975.91
2022-09-22T06:18:47.740Z,99956.94
2022-09-22T06:21:16.767Z,99954.63
2022-09-22T06:23:45.496Z,99953.09
2022-09-22T06:26:15.326Z,99953.50
2022-09-22T06:28:43.422Z,99944.38
2022-09-22T06:31:12.136Z,99942.19
2022-09-22T06:33:42.166Z,99938.91
2022-09-22T06:36:10.311Z,99928.56
2022-09-22T06:38:38.490Z,99928.38
2022-09-22T06:41:07.358Z,99919.38
2022-09-22T06:43:37.870Z,99918.19
2022-09-22T06:46:06.228Z,99902.72
2022-09-22T06:48:34.679Z,99893.41
2022-09-22T06:51:03.023Z,99882.81
2022-09-22T06:53:30.976Z,99876.84
2022-09-22T06:56:03.477Z,99871.66
2022-09-22T06:58:42.573Z,99850.38
2022-09-22T07:01:21.927Z,99828.06
2022-09-22T07:03:50.741Z,99817.75
2022-09-22T07:06:23.670Z,99800.41
2022-09-22T07:09:20.054Z,99789.97
2022-09-22T07:11:53.294Z,99784.38
2022-09-22T07:14:22.385Z,99770.16
2022-09-22T07:24:09.502Z,99712.66
2022-09-22T07:26:40.907Z,99697.53
2022-09-22T07:29:13.221Z,99680.31
2022-09-22T07:31:43.494Z,99660.03
2022-09-22T07:34:14.194Z,99641.47
2022-09-22T07:36:44.699Z,99630.97
2022-09-22T07:39:12.859Z,99620.25
2022-09-22T07:42:19.723Z,99599.72
2022-09-22T07:49:05.471Z,99590.66
2022-09-22T07:51:43.493Z,99583.59
2022-09-22T07:54:20.234Z,99582.50
2022-09-22T07:56:58.960Z,99588.41
2022-09-22T08:08:34.616Z,99581.81
2022-09-22T08:14:35.229Z,99580.94
2022-09-22T08:17:03.869Z,99592.09
2022-09-22T08:19:36.832Z,99599.78
2022-09-22T08:22:05.262Z,99620.13
2022-09-22T08:24:35.664Z,99631.19
2022-09-22T08:27:04.899Z,99636.47
2022-09-22T08:29:33.169Z,99651.94
2022-09-22T08:32:01.374Z,99642.81
2022-09-22T08:34:29.854Z,99648.91
2022-09-22T08:36:58.243Z,99643.59
2022-09-22T08:39:26.558Z,99641.97
2022-09-22T08:42:09.846Z,99651.06
2022-09-22T08:44:43.439Z,99669.25
2022-09-22T08:47:41.207Z,99661.97
2022-09-22T08:50:39.023Z,99657.22
2022-09-22T08:53:11.941Z,99665.16
2022-09-22T08:55:48.399Z,99673.53
2022-09-22T08:58:31.327Z,99694.16
2022-09-22T09:01:08.232Z,99696.00
2022-09-22T09:03:52.186Z,99704.13
2022-09-22T09:06:30.434Z,99711.53
2022-09-22T09:09:15.011Z,99721.94
2022-09-22T09:12:06.815Z,99731.97
2022-09-22T09:14:58.088Z,99744.13
2022-09-22T09:17:30.633Z,99734.53
2022-09-22T09:20:03.287Z,99745.38
2022-09-22T09:22:38.878Z,99769.59
2022-09-22T09:25:23.825Z,99784.19
2022-09-22T09:27:57.332Z,99802.19
2022-09-22T09:30:27.652Z,99822.53
2022-09-22T09:32:59.305Z,99844.13
2022-09-22T09:35:39.772Z,99848.03
2022-09-22T09:38:17.386Z,99850.50
2022-09-22T09:40:57.019Z,99862.06
2022-09-22T09:43:30.372Z,99872.56
2022-09-22T09:46:13.737Z,99881.19
2022-09-22T09:48:56.094Z,99887.56
2022-09-22T09:51:24.686Z,99915.91
2022-09-22T09:53:55.862Z,99945.72
2022-09-22T09:56:26.772Z,99947.31
2022-09-22T09:59:17.313Z,99951.31
2022-09-22T10:01:50.987Z,99968.75
2022-09-22T10:04:36.735Z,99961.13
2022-09-22T10:07:14.503Z,99973.69
2022-09-22T10:09:43.639Z,99998.81
2022-09-22T10:12:24.565Z,100009.88
2022-09-22T10:14:56.163Z,100030.69
2022-09-22T10:17:29.874Z,100053.47
2022-09-22T10:20:17.252Z,100069.22
2022-09-22T10:22:45.532Z,100076.72
2022-09-22T10:25:23.199Z,100117.13
2022-09-22T10:28:02.617Z,100114.75
2022-09-22T10:30:37.332Z,100143.97
2022-09-22T10:33:18.223Z,100152.03
2022-09-22T10:35:48.320Z,100160.88
2022-09-22T10:38:20.114Z,100152.22
2022-09-22T10:40:54.409Z,100151.63
2022-09-22T10:43:38.082Z,100182.47
2022-09-22T10:46:32.555Z,100215.16
2022-09-22T10:49:09.087Z,100196.97
2022-09-22T10:51:55.516Z,100228.91
2022-09-22T10:54:50.071Z,100234.31
2022-09-22T10:57:29.781Z,100237.66
2022-09-22T11:00:12.445Z,100249.25
2022-09-22T11:03:11.296Z,100245.56
2022-09-22T11:06:13.319Z,100253.97
2022-09-22T11:09:19.501Z,100266.31
2022-09-22T11:12:50.427Z,100242.47
2022-09-22T11:15:39.906Z,100255.16
2022-09-22T11:18:34.435Z,100283.38
2022-09-22T11:21:18.975Z,100305.25
2022-09-22T11:24:14.742Z,100294.66
2022-09-22T11:26:48.636Z,100313.84
2022-09-22T11:29:46.115Z,100314.94
2022-09-22T11:32:31.486Z,100305.06
2022-09-22T11:35:15.513Z,100298.25
2022-09-22T11:37:55.390Z,100317.84
2022-09-22T11:40:40.317Z,100342.75
2022-09-22T11:43:27.030Z,100347.16
2022-09-22T11:46:02.763Z,100328.72
2022-09-22T11:48:47.688Z,100333.47
2022-09-22T11:51:36.587Z,100344.63
2022-09-22T11:54:25.714Z,100357.94
2022-09-22T11:56:57.839Z,100328.28
2022-09-22T11:59:37.671Z,100369.00
2022-09-22T12:02:18.648Z,100346.75
2022-09-22T12:04:54.085Z,100358.22
2022-09-22T12:07:27.933Z,100365.09
2022-09-22T12:10:03.084Z,100341.69
2022-09-22T12:12:33.293Z,100416.03
2022-09-22T12:15:08.703Z,100388.78
2022-09-22T12:17:44.808Z,100374.19
2022-09-22T12:20:26.934Z,100394.91
2022-09-22T12:23:17.147Z,100432.09
2022-09-22T12:25:49.405Z,100457.06
2022-09-22T12:28:20.743Z,100480.03
2022-09-22T12:31:04.984Z,100405.25
2022-09-22T12:33:35.314Z,100386.13
2022-09-22T12:36:04.308Z,100367.47
2022-09-22T12:38:32.908Z,100375.00
2022-09-22T12:41:04.354Z,100321.66
2022-09-22T12:43:34.254Z,100347.69
2022-09-22T12:46:07.305Z,100789.84
2022-09-22T12:48:38.099Z,100797.94
2022-09-22T12:51:31.753Z,100895.25
2022-09-22T12:54:28.731Z,100935.13
2022-09-22T12:57:00.752Z,100906.06
2022-09-22T12:59:48.159Z,100873.25
2022-09-22T13:02:29.349Z,100992.00
2022-09-22T13:05:37.827Z,101001.78
2022-09-22T13:08:05.695Z,100990.13
2022-09-22T13:10:58.104Z,101013.44
2022-09-22T13:13:45.619Z,101078.22
2022-09-22T13:16:35.562Z,101107.19
2022-09-22T13:19:04.980Z,101071.59
2022-09-22T13:21:34.427Z,101010.38
2022-09-22T13:24:04.970Z,100947.75
2022-09-22T13:26:35.043Z,100939.31
2022-09-22T13:29:08.217Z,100981.72
2022-09-22T13:31:41.575Z,100954.72
2022-09-22T13:34:26.014Z,101012.78
2022-09-22T13:36:57.927Z,100944.69
2022-09-22T13:39:28.766Z,100959.16
2022-09-22T13:42:04.514Z,100971.53
2022-09-22T13:44:38.247Z,100965.91
2022-09-22T13:47:10.067Z,100913.78
2022-09-22T13:49:42.359Z,100909.06
2022-09-22T13:52:16.837Z,100915.09
2022-09-22T13:54:50.537Z,100972.31
2022-09-22T13:57:22.606Z,100966.53
2022-09-22T13:59:52.802Z,101039.03
2022-09-22T14:02:28.150Z,100995.84
2022-09-22T14:05:02.894Z,101012.03
2022-09-22T14:07:38.353Z,101023.84
2022-09-22T14:10:19.414Z,101038.66
2022-09-22T14:12:49.110Z,100957.53
2022-09-22T14:15:44.859Z,101057.00
2022-09-22T14:18:19.776Z,101069.66
2022-09-22T14:20:48.453Z,100991.06
2022-09-22T14:23:19.095Z,100945.91
2022-09-22T14:25:47.396Z,100987.88
2022-09-22T14:28:21.876Z,101057.00
2022-09-22T14:30:52.042Z,101006.00
2022-09-22T14:33:23.915Z,101001.47
2022-09-22T14:36:00.753Z,101016.84
2022-09-22T14:38:34.339Z,101008.72
2022-09-22T14:41:02.832Z,100947.19
2022-09-22T14:43:42.179Z,100964.69
2022-09-22T14:46:31.079Z,100958.78
2022-09-22T14:48:58.977Z,100909.97
2022-09-22T14:51:28.579Z,101005.81
2022-09-22T14:54:00.761Z,101066.13
2022-09-22T14:56:32.343Z,101085.38
2022-09-22T14:59:23.185Z,101103.75
2022-09-22T15:02:10.429Z,101145.00
2022-09-22T15:04:42.058Z,101106.53
2022-09-22T15:07:24.722Z,101101.41
2022-09-22T15:09:56.086Z,101024.28
2022-09-22T15:12:39.594Z,101011.13
2022-09-22T15:15:19.836Z,101034.16
2022-09-22T15:18:08.399Z,101053.81
2022-09-22T15:20:42.729Z,101082.66
2022-09-22T15:23:21.844Z,101145.00
2022-09-22T15:25:51.757Z,101058.22
2022-09-22T15:28:22.789Z,101122.50
2022-09-22T15:30:52.535Z,101087.63
2022-09-22T15:33:22.702Z,101115.63
2022-09-22T15:35:56.388Z,101118.19
2022-09-22T15:38:27.561Z,101085.63
2022-09-22T15:40:55.564Z,101048.22
2022-09-22T15:43:24.696Z,101074.75
2022-09-22T15:45:56.207Z,101041.88
2022-09-22T15:48:29.017Z,101058.69
2022-09-22T15:51:08.655Z,101040.19
2022-09-22T15:59:39.568Z,100965.56
2022-09-22T16:02:11.632Z,100956.25
2022-09-22T16:04:40.784Z,100914.19
2022-09-22T16:11:31.794Z,101030.47
2022-09-22T16:14:03.379Z,100982.53
2022-09-22T16:16:32.313Z,100969.28
2022-09-22T16:19:01.213Z,100983.66
2022-09-22T16:21:33.207Z,100974.53
2022-09-22T16:24:05.084Z,100944.06
2022-09-22T16:26:33.579Z,100906.81
2022-09-22T16:29:03.118Z,100806.13
2022-09-22T16:31:31.512Z,100749.16
2022-09-22T16:34:01.867Z,100723.47
2022-09-22T16:36:33.662Z,100662.25
2022-09-22T16:39:02.376Z,100635.09
2022-09-22T16:41:32.011Z,100601.78
2022-09-22T16:44:01.014Z,100594.44
2022-09-22T16:46:31.107Z,100541.94
2022-09-22T16:49:03.253Z,100496.78
2022-09-22T16:51:33.348Z,100460.34
2022-09-22T16:54:01.447Z,100403.16
2022-09-22T16:56:31.829Z,100325.41
2022-09-22T16:59:01.455Z,100291.44
2022-09-22T17:01:31.334Z,100220.56
2022-09-22T17:04:06.309Z,100145.53
2022-09-22T17:06:38.223Z,100095.97
2022-09-22T17:09:09.537Z,100072.66
2022-09-22T17:11:39.386Z,100052.19
2022-09-22T17:14:12.403Z,100032.03
2022-09-22T17:16:42.523Z,99980.41
2022-09-22T17:19:12.138Z,99976.53
2022-09-22T17:21:41.429Z,99960.97
2022-09-22T17:24:09.749Z,99946.22
2022-09-22T17:26:41.152Z,99923.50
2022-09-22T17:29:10.788Z,99913.63
2022-09-22T17:31:38.814Z,99912.78
2022-09-22T17:34:06.770Z,99909.19
2022-09-22T17:36:34.762Z,99895.19
2022-09-22T17:39:04.546Z,99884.88
2022-09-22T17:41:33.894Z,99883.72
2022-09-22T17:44:03.359Z,99892.84
2022-09-22T17:46:34.131Z,99882.72
2022-09-22T17:49:19.816Z,99889.94
2022-09-22T17:52:06.412Z,99883.97
2022-09-22T17:54:55.454Z,99884.06
2022-09-22T17:57:27.564Z,99871.22
2022-09-22T17:59:56.865Z,99890.03
2022-09-22T18:02:27.093Z,99883.03
2022-09-22T18:04:55.103Z,99868.75
2022-09-22T18:07:24.793Z,99869.56
2022-09-22T18:09:55.388Z,99869.41
2022-09-22T18:12:25.383Z,99855.53
2022-09-22T18:14:55.457Z,99845.22
2022-09-22T18:17:25.105Z,99832.63
2022-09-22T18:19:55.641Z,99815.78
2022-09-22T18:22:25.478Z,99802.91
2022-09-22T18:24:56.206Z,99795.44
2022-09-22T18:27:26.957Z,99783.41
2022-09-22T18:29:59.457Z,99762.31
2022-09-22T18:32:28.475Z,99755.59
2022-09-22T18:34:56.689Z,99741.59
2022-09-22T18:37:25.682Z,99734.56
2022-09-22T18:39:55.272Z,99718.06
2022-09-22T18:42:25.539Z,99704.06
2022-09-22T18:44:53.916Z,99690.06
2022-09-22T18:47:23.376Z,99687.47
2022-09-22T18:49:51.896Z,99671.50
2022-09-22T18:52:24.640Z,99655.78
2022-09-22T18:54:54.816Z,99653.50
2022-09-22T18:57:26.002Z,99648.94
2022-09-22T18:59:57.472Z,99635.97
2022-09-22T19:02:25.967Z,99622.28
2022-09-22T19:04:54.051Z,99620.97
2022-09-22T19:07:43.600Z,99608.44
2022-09-22T19:10:13.298Z,99589.06
2022-09-22T19:12:43.294Z,99578.50
2022-09-22T19:15:15.004Z,99564.50
2022-09-22T19:17:44.817Z,99558.91
2022-09-22T19:20:14.773Z,99552.53
2022-09-22T19:22:42.955Z,99544.41
2022-09-22T19:25:12.046Z,99542.66
2022-09-22T19:27:40.639Z,99530.97
2022-09-22T19:30:11.686Z,99520.00
2022-09-22T19:32:40.299Z,99515.69
2022-09-22T19:35:09.428Z,99514.84
2022-09-22T19:37:37.604Z,99493.19
2022-09-22T19:40:06.651Z,99476.72
2022-09-22T19:42:40.167Z,99458.78
2022-09-22T19:45:10.601Z,99432.03
2022-09-22T19:47:40.321Z,99427.41
2022-09-22T19:50:09.471Z,99418.84
2022-09-22T19:52:40.257Z,99426.25
2022-09-22T19:55:11.412Z,99409.06
2022-09-22T19:57:41.278Z,99400.06
2022-09-22T20:00:17.044Z,99393.34
2022-09-22T20:02:45.872Z,99373.56
2022-09-22T20:05:21.790Z,99369.84
2022-09-22T20:07:49.984Z,99365.16
2022-09-22T20:10:19.005Z,99357.13
2022-09-22T20:12:47.187Z,99348.44
2022-09-22T20:15:17.050Z,99331.13
2022-09-22T20:17:46.422Z,99311.75
2022-09-22T20:20:15.768Z,99312.56
2022-09-22T20:22:45.485Z,99282.56
2022-09-22T20:25:22.681Z,99270.59
2022-09-22T20:27:50.803Z,99260.97
2022-09-22T20:30:21.035Z,99258.81
2022-09-22T20:32:50.412Z,99258.53
2022-09-22T20:35:21.728Z,99260.81
2022-09-22T20:37:51.525Z,99261.06
2022-09-22T20:40:22.075Z,99246.28
2022-09-22T20:42:51.326Z,99231.50
2022-09-22T20:45:22.841Z,99218.72
2022-09-22T20:47:51.040Z,99218.97
2022-09-22T20:50:19.630Z,99199.09
2022-09-22T20:52:47.920Z,99189.69
2022-09-22T20:55:16.083Z,99189.97
2022-09-22T20:57:44.208Z,99192.81
2022-09-22T21:00:15.268Z,99185.53
2022-09-22T21:02:45.023Z,99174.88
2022-09-22T21:05:13.123Z,99169.19
2022-09-22T21:07:41.097Z,99165.22
2022-09-22T21:10:27.374Z,99156.69
2022-09-22T21:12:56.418Z,99134.22
2022-09-22T21:15:24.511Z,99134.19
2022-09-22T21:17:54.037Z,99124.84
2022-09-22T21:20:22.661Z,99139.88
2022-09-22T21:22:50.691Z,99140.13
2022-09-22T21:25:20.147Z,99130.91
2022-09-22T21:27:48.285Z,99129.06
2022-09-22T21:30:16.422Z,99120.25
2022-09-22T21:32:44.491Z,99137.00
2022-09-22T21:35:16.749Z,99127.03
2022-09-22T21:37:46.135Z,99118.84
2022-09-22T21:40:14.343Z,99117.97
2022-09-22T21:42:42.422Z,99121.97
2022-09-22T21:45:11.506Z,99113.16
2022-09-22T21:47:39.466Z,99113.28
2022-09-22T21:50:08.414Z,99105.75
2022-09-22T21:52:38.496Z,99105.03
2022-09-22T21:55:07.565Z,99095.81
2022-09-22T21:57:35.663Z,99097.50
2022-09-22T22:00:05.880Z,99093.41
2022-09-22T22:02:53.608Z,99097.94
2022-09-22T22:05:21.567Z,99086.44
2022-09-22T22:07:51.051Z,99091.13
2022-09-22T22:10:19.197Z,99087.88
2022-09-22T22:12:47.135Z,99097.66
2022-09-22T22:15:15.519Z,99102.75
2022-09-22T22:17:43.400Z,99109.00
2022-09-22T22:20:11.302Z,99107.47
2022-09-22T22:22:39.252Z,99123.09
2022-09-22T22:25:12.596Z,99116.28
2022-09-22T22:27:40.430Z,99146.13
2022-09-22T22:30:09.734Z,99160.34
2022-09-22T22:32:37.587Z,99169.16
2022-09-22T22:35:07.291Z,99176.56
2022-09-22T22:37:35.184Z,99178.00
2022-09-22T22:40:03.137Z,99199.88
2022-09-22T22:42:32.427Z,99224.34
2022-09-22T22:45:00.320Z,99238.25
2022-09-22T22:47:28.195Z,99255.88
2022-09-22T22:49:56.047Z,99255.59
2022-09-22T22:52:23.919Z,99266.38
2022-09-22T22:54:52.627Z,99271.78
2022-09-22T22:57:20.529Z,99268.38
2022-09-22T22:59:49.791Z,99286.84
2022-09-22T23:02:17.664Z,99288.81
2022-09-22T23:04:45.671Z,99287.22
2022-09-22T23:07:13.565Z,99284.84
2022-09-22T23:09:41.477Z,99262.97
2022-09-22T23:12:10.587Z,99290.91
2022-09-22T23:14:38.471Z,99276.69
2022-09-22T23:17:07.773Z,99259.84
2022-09-22T23:19:35.996Z,99243.44
2022-09-22T23:22:04.107Z,99258.91
2022-09-22T23:24:32.088Z,99273.56
2022-09-22T23:27:00.003Z,99281.84
2022-09-22T23:29:27.928Z,99276.00
2022-09-22T23:31:56.115Z,99259.09
2022-09-22T23:34:25.519Z,99248.63
2022-09-22T23:36:53.638Z,99238.41
2022-09-22T23:39:21.577Z,99243.47
2022-09-22T23:41:51.815Z,99225.44
2022-09-22T23:44:19.887Z,99218.94
2022-09-22T23:46:48.004Z,99226.41
2022-09-22T23:49:16.474Z,99226.41
2022-09-22T23:51:45.766Z,99227.66
2022-09-22T23:54:14.161Z,99228.72
2022-09-22T23:56:42.669Z,99230.28
2022-09-22T23:59:10.587Z,99239.84
